sensor_id;sensor_type;location;lat;lon;timestamp;pressure;altitude;pressure_sealevel;temperature;humidity
21826;BME280;11075;47.944;11.776;2022-08-06T00:02:23;95095.81;;;27.93;24.20
21826;BME280;11075;47.944;11.776;2022-08-06T00:04:58;95091.16;;;27.90;24.42
21826;BME280;11075;47.944;11.776;2022-08-06T00:07:26;95102.81;;;26.85;25.37
21826;BME280;11075;47.944;11.776;2022-08-06T00:09:55;95104.31;;;26.41;25.15
21826;BME280;11075;47.944;11.776;2022-08-06T00:12:31;95119.59;;;26.78;25.52
21826;BME280;11075;47.944;11.776;2022-08-06T00:15:06;95120.16;;;26.70;25.34
21826;BME280;11075;47.944;11.776;2022-08-06T00:17:43;95135.34;;;27.81;23.74
21826;BME280;11075;47.944;11.776;2022-08-06T00:20:15;95146.84;;;27.79;24.08
21826;BME280;11075;47.944;11.776;2022-08-06T00:22:58;95147.06;;;27.43;24.15
21826;BME280;11075;47.944;11.776;2022-08-06T00:25:27;95125.38;;;25.23;26.60
21826;BME280;11075;47.944;11.776;2022-08-06T00:28:01;95152.13;;;26.71;24.99
21826;BME280;11075;47.944;11.776;2022-08-06T00:30:35;95155.94;;;26.08;25.96
21826;BME280;11075;47.944;11.776;2022-08-06T00:33:03;95124.00;;;24.68;27.54
21826;BME280;11075;47.944;11.776;2022-08-06T00:35:30;95154.16;;;25.62;26.35
21826;BME280;11075;47.944;11.776;2022-08-06T00:37:58;95164.47;;;27.98;23.37
21826;BME280;11075;47.944;11.776;2022-08-06T00:40:27;95167.00;;;27.80;23.70
21826;BME280;11075;47.944;11.776;2022-08-06T00:43:00;95177.94;;;27.71;24.03
21826;BME280;11075;47.944;11.776;2022-08-06T00:45:35;95153.66;;;25.67;26.29
21826;BME280;11075;47.944;11.776;2022-08-06T00:48:11;95173.91;;;24.20;28.08
21826;BME280;11075;47.944;11.776;2022-08-06T00:50:58;95183.97;;;26.59;25.70
21826;BME280;11075;47.944;11.776;2022-08-06T00:53:27;95167.28;;;24.68;27.06
21826;BME280;11075;47.944;11.776;2022-08-06T00:56:00;95169.09;;;24.78;26.81
21826;BME280;11075;47.944;11.776;2022-08-06T00:58:36;95170.88;;;23.84;27.95
21826;BME280;11075;47.944;11.776;2022-08-06T01:01:08;95172.25;;;25.00;26.17
21826;BME280;11075;47.944;11.776;2022-08-06T01:03:47;95144.31;;;23.70;28.18
21826;BME280;11075;47.944;11.776;2022-08-06T01:06:18;95176.47;;;25.28;26.05
21826;BME280;11075;47.944;11.776;2022-08-06T01:09:06;95139.47;;;23.47;27.99
21826;BME280;11075;47.944;11.776;2022-08-06T01:11:33;95142.34;;;25.22;26.67
21826;BME280;11075;47.944;11.776;2022-08-06T01:14:00;95117.88;;;22.74;29.62
21826;BME280;11075;47.944;11.776;2022-08-06T01:19:57;95159.91;;;25.51;25.84
21826;BME280;11075;47.944;11.776;2022-08-06T01:22:53;95149.25;;;26.25;25.06
21826;BME280;11075;47.944;11.776;2022-08-06T01:25:41;95153.16;;;25.92;25.58
21826;BME280;11075;47.944;11.776;2022-08-06T01:31:01;95155.75;;;26.67;24.82
21826;BME280;11075;47.944;11.776;2022-08-06T01:33:39;95114.22;;;24.87;26.73
21826;BME280;11075;47.944;11.776;2022-08-06T01:36:24;95114.53;;;25.92;26.11
21826;BME280;11075;47.944;11.776;2022-08-06T01:38:57;95139.00;;;27.49;23.57
21826;BME280;11075;47.944;11.776;2022-08-06T01:41:36;95134.03;;;28.49;22.73
21826;BME280;11075;47.944;11.776;2022-08-06T01:44:31;95100.50;;;25.83;25.53
21826;BME280;11075;47.944;11.776;2022-08-06T01:47:03;95117.44;;;27.56;23.35
21826;BME280;11075;47.944;11.776;2022-08-06T01:49:45;95115.84;;;27.97;23.32
21826;BME280;11075;47.944;11.776;2022-08-06T01:52:42;95090.56;;;26.05;25.44
21826;BME280;11075;47.944;11.776;2022-08-06T01:55:29;95107.53;;;27.01;24.74
21826;BME280;11075;47.944;11.776;2022-08-06T01:58:21;95113.72;;;27.63;23.91
21826;BME280;11075;47.944;11.776;2022-08-06T02:00:56;95098.22;;;26.95;24.51
21826;BME280;11075;47.944;11.776;2022-08-06T02:03:33;95110.59;;;27.19;24.39
21826;BME280;11075;47.944;11.776;2022-08-06T02:06:21;95102.09;;;27.26;24.04
21826;BME280;11075;47.944;11.776;2022-08-06T02:08:58;95101.59;;;26.86;24.13
21826;BME280;11075;47.944;11.776;2022-08-06T02:11:57;95057.97;;;25.44;26.43
21826;BME280;11075;47.944;11.776;2022-08-06T02:14:37;95105.16;;;27.57;23.46
21826;BME280;11075;47.944;11.776;2022-08-06T02:17:11;95099.69;;;28.46;22.72
21826;BME280;11075;47.944;11.776;2022-08-06T02:19:47;95076.41;;;26.19;25.23
21826;BME280;11075;47.944;11.776;2022-08-06T02:22:38;95120.03;;;27.64;23.74
21826;BME280;11075;47.944;11.776;2022-08-06T02:25:10;95101.06;;;26.75;24.79
21826;BME280;11075;47.944;11.776;2022-08-06T02:27:53;95104.75;;;27.01;24.26
21826;BME280;11075;47.944;11.776;2022-08-06T02:30:28;95121.44;;;26.97;24.29
21826;BME280;11075;47.944;11.776;2022-08-06T02:33:04;95110.03;;;26.95;24.45
21826;BME280;11075;47.944;11.776;2022-08-06T02:38:49;95103.91;;;27.33;24.32
21826;BME280;11075;47.944;11.776;2022-08-06T02:41:38;95105.00;;;26.61;24.62
21826;BME280;11075;47.944;11.776;2022-08-06T02:47:02;95112.13;;;26.10;25.30
21826;BME280;11075;47.944;11.776;2022-08-06T02:49:45;95133.59;;;28.12;23.37
21826;BME280;11075;47.944;11.776;2022-08-06T02:52:30;95112.75;;;26.66;24.79
21826;BME280;11075;47.944;11.776;2022-08-06T02:55:14;95100.34;;;25.54;25.66
21826;BME280;11075;47.944;11.776;2022-08-06T02:57:49;95114.41;;;25.39;26.23
21826;BME280;11075;47.944;11.776;2022-08-06T03:00:18;95116.03;;;26.29;25.31
21826;BME280;11075;47.944;11.776;2022-08-06T03:02:57;95116.56;;;24.89;26.17
21826;BME280;11075;47.944;11.776;2022-08-06T03:05:27;95114.97;;;25.70;25.70
21826;BME280;11075;47.944;11.776;2022-08-06T03:08:18;95091.19;;;24.04;27.35
21826;BME280;11075;47.944;11.776;2022-08-06T03:10:53;95128.56;;;26.82;24.23
21826;BME280;11075;47.944;11.776;2022-08-06T03:13:22;95114.03;;;25.77;25.55
21826;BME280;11075;47.944;11.776;2022-08-06T03:15:58;95125.91;;;27.08;23.90
21826;BME280;11075;47.944;11.776;2022-08-06T03:18:27;95119.34;;;25.68;25.61
21826;BME280;11075;47.944;11.776;2022-08-06T03:20:57;95122.69;;;26.48;24.39
21826;BME280;11075;47.944;11.776;2022-08-06T03:23:28;95117.75;;;26.23;24.96
21826;BME280;11075;47.944;11.776;2022-08-06T03:25:56;95104.53;;;25.98;25.32
21826;BME280;11075;47.944;11.776;2022-08-06T03:28:33;95097.94;;;24.26;26.66
21826;BME280;11075;47.944;11.776;2022-08-06T03:31:02;95116.47;;;26.44;24.79
21826;BME280;11075;47.944;11.776;2022-08-06T03:33:30;95121.66;;;25.89;25.38
21826;BME280;11075;47.944;11.776;2022-08-06T03:36:18;95120.53;;;27.17;23.45
21826;BME280;11075;47.944;11.776;2022-08-06T03:38:50;95116.19;;;26.87;23.88
21826;BME280;11075;47.944;11.776;2022-08-06T03:41:26;95113.59;;;26.96;23.85
21826;BME280;11075;47.944;11.776;2022-08-06T03:44:01;95104.97;;;26.13;24.66
21826;BME280;11075;47.944;11.776;2022-08-06T03:46:35;95103.94;;;26.23;24.82
21826;BME280;11075;47.944;11.776;2022-08-06T03:49:05;95102.69;;;25.55;25.68
21826;BME280;11075;47.944;11.776;2022-08-06T03:51:35;95111.94;;;26.01;24.73
21826;BME280;11075;47.944;11.776;2022-08-06T03:54:26;95101.63;;;25.85;25.19
21826;BME280;11075;47.944;11.776;2022-08-06T03:57:05;95101.34;;;24.34;26.33
21826;BME280;11075;47.944;11.776;2022-08-06T03:59:45;95130.06;;;26.02;25.20
21826;BME280;11075;47.944;11.776;2022-08-06T04:02:53;95137.28;;;26.64;23.82
21826;BME280;11075;47.944;11.776;2022-08-06T04:05:22;95116.16;;;24.67;26.42
21826;BME280;11075;47.944;11.776;2022-08-06T04:07:55;95129.63;;;24.85;26.26
21826;BME280;11075;47.944;11.776;2022-08-06T04:10:25;95148.03;;;25.90;25.08
21826;BME280;11075;47.944;11.776;2022-08-06T04:13:04;95110.50;;;23.73;27.76
21826;BME280;11075;47.944;11.776;2022-08-06T04:15:52;95115.31;;;23.32;27.77
21826;BME280;11075;47.944;11.776;2022-08-06T04:18:28;95163.41;;;26.27;25.07
21826;BME280;11075;47.944;11.776;2022-08-06T04:21:01;95147.84;;;26.01;25.29
21826;BME280;11075;47.944;11.776;2022-08-06T04:23:47;95145.13;;;25.61;25.62
21826;BME280;11075;47.944;11.776;2022-08-06T04:26:15;95156.63;;;26.48;24.11
21826;BME280;11075;47.944;11.776;2022-08-06T04:28:47;95134.56;;;24.46;26.25
21826;BME280;11075;47.944;11.776;2022-08-06T04:31:26;95162.91;;;26.97;24.50
21826;BME280;11075;47.944;11.776;2022-08-06T04:34:19;95165.94;;;26.54;23.81
21826;BME280;11075;47.944;11.776;2022-08-06T04:36:52;95165.06;;;26.57;24.91
21826;BME280;11075;47.944;11.776;2022-08-06T04:39:21;95162.91;;;25.96;25.78
21826;BME280;11075;47.944;11.776;2022-08-06T04:42:03;95166.72;;;25.83;25.67
21826;BME280;11075;47.944;11.776;2022-08-06T04:44:32;95156.28;;;25.94;26.01
21826;BME280;11075;47.944;11.776;2022-08-06T04:47:00;95169.47;;;26.39;25.28
21826;BME280;11075;47.944;11.776;2022-08-06T04:49:27;95151.03;;;25.20;26.35
21826;BME280;11075;47.944;11.776;2022-08-06T04:52:22;95177.97;;;27.54;23.97
21826;BME280;11075;47.944;11.776;2022-08-06T04:55:03;95158.13;;;26.17;25.55
21826;BME280;11075;47.944;11.776;2022-08-06T04:57:32;95157.47;;;25.93;25.88
21826;BME280;11075;47.944;11.776;2022-08-06T05:00:19;95176.31;;;27.57;24.02
21826;BME280;11075;47.944;11.776;2022-08-06T05:03:06;95173.22;;;27.97;24.16
21826;BME280;11075;47.944;11.776;2022-08-06T05:05:47;95151.09;;;25.96;25.20
21826;BME280;11075;47.944;11.776;2022-08-06T05:08:20;95159.63;;;26.54;25.20
21826;BME280;11075;47.944;11.776;2022-08-06T05:10:58;95168.97;;;26.60;25.29
21826;BME280;11075;47.944;11.776;2022-08-06T05:13:30;95172.50;;;26.93;24.67
21826;BME280;11075;47.944;11.776;2022-08-06T05:16:08;95181.56;;;27.68;24.20
21826;BME280;11075;47.944;11.776;2022-08-06T05:18:39;95183.69;;;27.64;24.69
21826;BME280;11075;47.944;11.776;2022-08-06T05:21:34;95192.56;;;27.71;24.12
21826;BME280;11075;47.944;11.776;2022-08-06T05:24:21;95182.59;;;27.45;24.56
21826;BME280;11075;47.944;11.776;2022-08-06T05:27:04;95189.59;;;25.83;26.56
21826;BME280;11075;47.944;11.776;2022-08-06T05:29:32;95186.47;;;26.70;25.10
21826;BME280;11075;47.944;11.776;2022-08-06T05:32:02;95194.47;;;27.58;24.23
21826;BME280;11075;47.944;11.776;2022-08-06T05:34:35;95201.13;;;27.60;24.34
21826;BME280;11075;47.944;11.776;2022-08-06T05:37:03;95172.78;;;25.58;26.65
21826;BME280;11075;47.944;11.776;2022-08-06T05:39:35;95193.41;;;25.69;26.58
21826;BME280;11075;47.944;11.776;2022-08-06T05:42:22;95172.94;;;25.07;27.08
21826;BME280;11075;47.944;11.776;2022-08-06T05:44:52;95175.19;;;24.89;26.83
21826;BME280;11075;47.944;11.776;2022-08-06T05:47:21;95206.16;;;26.55;25.62
21826;BME280;11075;47.944;11.776;2022-08-06T05:50:02;95199.84;;;26.02;26.07
21826;BME280;11075;47.944;11.776;2022-08-06T05:52:48;95205.44;;;25.79;26.51
21826;BME280;11075;47.944;11.776;2022-08-06T05:55:45;95210.78;;;25.27;27.09
21826;BME280;11075;47.944;11.776;2022-08-06T05:58:42;95240.38;;;27.72;24.27
21826;BME280;11075;47.944;11.776;2022-08-06T06:01:21;95219.47;;;26.24;26.03
21826;BME280;11075;47.944;11.776;2022-08-06T06:03:50;95223.03;;;24.99;27.61
21826;BME280;11075;47.944;11.776;2022-08-06T06:06:22;95239.13;;;27.44;24.63
21826;BME280;11075;47.944;11.776;2022-08-06T06:08:50;95234.50;;;27.24;24.75
21826;BME280;11075;47.944;11.776;2022-08-06T06:11:25;95222.41;;;27.02;24.79
21826;BME280;11075;47.944;11.776;2022-08-06T06:17:19;95244.94;;;25.96;26.35
21826;BME280;11075;47.944;11.776;2022-08-06T06:40:25;95242.44;;;24.68;27.71
21826;BME280;11075;47.944;11.776;2022-08-06T06:43:08;95235.00;;;24.38;27.10
21826;BME280;11075;47.944;11.776;2022-08-06T06:45:56;95267.03;;;25.29;26.27
21826;BME280;11075;47.944;11.776;2022-08-06T06:48:46;95275.38;;;27.01;24.77
21826;BME280;11075;47.944;11.776;2022-08-06T06:54:07;95251.94;;;24.06;27.61
21826;BME280;11075;47.944;11.776;2022-08-06T06:56:50;95263.22;;;22.99;28.92
21826;BME280;11075;47.944;11.776;2022-08-06T06:59:28;95284.88;;;22.24;29.97
21826;BME280;11075;47.944;11.776;2022-08-06T07:02:19;95282.16;;;24.10;26.99
21826;BME280;11075;47.944;11.776;2022-08-06T07:04:53;95261.94;;;21.75;29.95
21826;BME280;11075;47.944;11.776;2022-08-06T07:07:26;95292.09;;;24.34;27.13
21826;BME280;11075;47.944;11.776;2022-08-06T07:09:57;95263.56;;;22.53;29.00
21826;BME280;11075;47.944;11.776;2022-08-06T07:12:30;95294.84;;;24.65;26.78
21826;BME280;11075;47.944;11.776;2022-08-06T07:15:03;95305.81;;;25.42;26.01
21826;BME280;11075;47.944;11.776;2022-08-06T07:17:32;95283.09;;;24.57;26.23
21826;BME280;11075;47.944;11.776;2022-08-06T07:20:23;95288.13;;;24.66;26.46
21826;BME280;11075;47.944;11.776;2022-08-06T07:22:57;95293.69;;;23.60;27.53
21826;BME280;11075;47.944;11.776;2022-08-06T07:25:46;95277.94;;;24.02;27.29
21826;BME280;11075;47.944;11.776;2022-08-06T07:28:22;95280.00;;;23.12;28.30
21826;BME280;11075;47.944;11.776;2022-08-06T07:31:02;95293.94;;;23.35;27.39
21826;BME280;11075;47.944;11.776;2022-08-06T07:33:37;95304.38;;;23.55;26.91
21826;BME280;11075;47.944;11.776;2022-08-06T07:36:27;95314.16;;;24.61;26.06
21826;BME280;11075;47.944;11.776;2022-08-06T07:39:01;95288.06;;;22.85;27.70
21826;BME280;11075;47.944;11.776;2022-08-06T07:41:29;95293.91;;;22.28;27.64
21826;BME280;11075;47.944;11.776;2022-08-06T07:44:23;95320.19;;;23.85;26.55
21826;BME280;11075;47.944;11.776;2022-08-06T07:46:58;95333.22;;;24.14;26.15
21826;BME280;11075;47.944;11.776;2022-08-06T07:49:35;95335.78;;;23.95;25.95
21826;BME280;11075;47.944;11.776;2022-08-06T07:52:24;95304.88;;;22.24;27.67
21826;BME280;11075;47.944;11.776;2022-08-06T07:54:56;95327.75;;;22.77;26.65
21826;BME280;11075;47.944;11.776;2022-08-06T07:57:24;95334.66;;;23.51;26.40
21826;BME280;11075;47.944;11.776;2022-08-06T07:59:58;95321.91;;;21.59;27.69
21826;BME280;11075;47.944;11.776;2022-08-06T08:02:26;95329.69;;;21.92;28.20
21826;BME280;11075;47.944;11.776;2022-08-06T08:04:56;95331.38;;;22.56;27.89
21826;BME280;11075;47.944;11.776;2022-08-06T08:07:43;95330.78;;;22.13;27.59
21826;BME280;11075;47.944;11.776;2022-08-06T08:10:24;95344.09;;;22.14;27.76
21826;BME280;11075;47.944;11.776;2022-08-06T08:12:56;95350.00;;;22.93;27.09
21826;BME280;11075;47.944;11.776;2022-08-06T08:15:31;95360.78;;;25.02;25.14
21826;BME280;11075;47.944;11.776;2022-08-06T08:18:08;95325.44;;;21.17;29.21
21826;BME280;11075;47.944;11.776;2022-08-06T08:20:37;95361.66;;;22.45;27.82
21826;BME280;11075;47.944;11.776;2022-08-06T08:23:07;95341.81;;;20.67;30.44
21826;BME280;11075;47.944;11.776;2022-08-06T08:25:57;95358.66;;;22.01;28.28
21826;BME280;11075;47.944;11.776;2022-08-06T08:28:25;95371.88;;;23.11;26.86
21826;BME280;11075;47.944;11.776;2022-08-06T08:30:55;95355.09;;;22.11;28.31
21826;BME280;11075;47.944;11.776;2022-08-06T08:33:46;95368.34;;;23.10;26.91
21826;BME280;11075;47.944;11.776;2022-08-06T08:36:13;95359.09;;;21.24;28.94
21826;BME280;11075;47.944;11.776;2022-08-06T08:38:40;95370.22;;;23.24;26.97
21826;BME280;11075;47.944;11.776;2022-08-06T08:41:31;95355.84;;;22.22;27.08
21826;BME280;11075;47.944;11.776;2022-08-06T08:44:22;95359.25;;;23.65;26.38
21826;BME280;11075;47.944;11.776;2022-08-06T08:46:56;95356.66;;;22.12;27.87
21826;BME280;11075;47.944;11.776;2022-08-06T08:49:41;95368.44;;;22.02;28.13
21826;BME280;11075;47.944;11.776;2022-08-06T08:52:18;95378.34;;;22.83;27.56
21826;BME280;11075;47.944;11.776;2022-08-06T08:54:51;95384.06;;;23.58;26.06
21826;BME280;11075;47.944;11.776;2022-08-06T08:57:18;95375.34;;;23.18;26.09
21826;BME280;11075;47.944;11.776;2022-08-06T09:00:07;95363.22;;;22.46;27.33
21826;BME280;11075;47.944;11.776;2022-08-06T09:02:37;95347.28;;;20.63;28.86
21826;BME280;11075;47.944;11.776;2022-08-06T09:05:17;95380.66;;;21.61;28.21
21826;BME280;11075;47.944;11.776;2022-08-06T09:07:44;95384.81;;;23.10;26.38
21826;BME280;11075;47.944;11.776;2022-08-06T09:10:26;95381.28;;;23.62;26.18
21826;BME280;11075;47.944;11.776;2022-08-06T09:12:53;95374.59;;;24.04;25.60
21826;BME280;11075;47.944;11.776;2022-08-06T09:15:22;95390.78;;;24.70;24.58
21826;BME280;11075;47.944;11.776;2022-08-06T09:17:51;95370.06;;;21.71;28.49
21826;BME280;11075;47.944;11.776;2022-08-06T09:20:38;95413.72;;;24.90;24.86
21826;BME280;11075;47.944;11.776;2022-08-06T09:23:12;95364.28;;;22.67;27.14
21826;BME280;11075;47.944;11.776;2022-08-06T09:25:49;95388.91;;;24.29;25.88
21826;BME280;11075;47.944;11.776;2022-08-06T09:28:31;95378.41;;;23.31;26.41
21826;BME280;11075;47.944;11.776;2022-08-06T09:34:05;95355.91;;;22.04;28.29
21826;BME280;11075;47.944;11.776;2022-08-06T09:36:52;95390.16;;;23.83;25.42
21826;BME280;11075;47.944;11.776;2022-08-06T09:42:36;95394.31;;;24.36;25.34
21826;BME280;11075;47.944;11.776;2022-08-06T09:45:05;95405.84;;;24.62;25.39
21826;BME280;11075;47.944;11.776;2022-08-06T09:47:44;95383.41;;;22.88;27.22
21826;BME280;11075;47.944;11.776;2022-08-06T09:50:37;95412.03;;;24.35;25.31
21826;BME280;11075;47.944;11.776;2022-08-06T09:53:09;95398.47;;;23.76;25.87
21826;BME280;11075;47.944;11.776;2022-08-06T09:55:41;95394.94;;;24.13;25.61
21826;BME280;11075;47.944;11.776;2022-08-06T09:58:08;95402.38;;;24.20;26.17
21826;BME280;11075;47.944;11.776;2022-08-06T10:00:37;95402.94;;;24.38;25.59
21826;BME280;11075;47.944;11.776;2022-08-06T10:03:07;95400.06;;;24.49;25.67
21826;BME280;11075;47.944;11.776;2022-08-06T10:06:05;95411.69;;;23.92;25.57
21826;BME280;11075;47.944;11.776;2022-08-06T10:08:41;95388.28;;;23.25;26.61
21826;BME280;11075;47.944;11.776;2022-08-06T10:11:09;95398.09;;;23.19;26.41
21826;BME280;11075;47.944;11.776;2022-08-06T10:13:38;95396.63;;;22.16;28.04
21826;BME280;11075;47.944;11.776;2022-08-06T10:16:20;95390.75;;;22.11;27.81
21826;BME280;11075;47.944;11.776;2022-08-06T10:18:55;95424.13;;;23.59;26.04
21826;BME280;11075;47.944;11.776;2022-08-06T10:21:29;95418.16;;;24.12;25.48
21826;BME280;11075;47.944;11.776;2022-08-06T10:24:09;95421.69;;;24.51;25.34
21826;BME280;11075;47.944;11.776;2022-08-06T10:26:37;95415.66;;;22.66;27.00
21826;BME280;11075;47.944;11.776;2022-08-06T10:29:10;95419.63;;;23.35;26.14
21826;BME280;11075;47.944;11.776;2022-08-06T10:31:40;95398.94;;;20.79;29.58
21826;BME280;11075;47.944;11.776;2022-08-06T10:34:10;95402.19;;;21.91;28.59
21826;BME280;11075;47.944;11.776;2022-08-06T10:36:45;95429.75;;;22.82;27.30
21826;BME280;11075;47.944;11.776;2022-08-06T10:39:19;95436.16;;;24.24;25.79
21826;BME280;11075;47.944;11.776;2022-08-06T10:42:07;95406.41;;;23.12;26.61
21826;BME280;11075;47.944;11.776;2022-08-06T10:44:48;95408.75;;;23.13;27.32
21826;BME280;11075;47.944;11.776;2022-08-06T10:47:17;95426.97;;;24.34;25.93
21826;BME280;11075;47.944;11.776;2022-08-06T10:50:05;95424.09;;;24.79;25.43
21826;BME280;11075;47.944;11.776;2022-08-06T10:52:53;95454.41;;;25.63;23.95
21826;BME280;11075;47.944;11.776;2022-08-06T10:55:22;95422.94;;;24.76;25.28
21826;BME280;11075;47.944;11.776;2022-08-06T10:57:49;95415.63;;;23.43;27.12
21826;BME280;11075;47.944;11.776;2022-08-06T11:00:17;95426.84;;;24.07;26.56
21826;BME280;11075;47.944;11.776;2022-08-06T11:03:06;95431.72;;;24.98;25.25
21826;BME280;11075;47.944;11.776;2022-08-06T11:05:39;95437.97;;;26.26;24.14
21826;BME280;11075;47.944;11.776;2022-08-06T11:11:16;95419.22;;;24.90;25.41
21826;BME280;11075;47.944;11.776;2022-08-06T11:14:01;95397.72;;;23.17;26.81
21826;BME280;11075;47.944;11.776;2022-08-06T11:16:30;95406.00;;;23.65;26.81
21826;BME280;11075;47.944;11.776;2022-08-06T11:19:03;95411.56;;;24.40;26.19
21826;BME280;11075;47.944;11.776;2022-08-06T11:21:46;95426.00;;;25.66;24.41
21826;BME280;11075;47.944;11.776;2022-08-06T11:24:30;95393.53;;;22.98;26.96
21826;BME280;11075;47.944;11.776;2022-08-06T11:27:04;95431.69;;;25.56;24.31
21826;BME280;11075;47.944;11.776;2022-08-06T11:30:08;95424.00;;;26.33;23.63
21826;BME280;11075;47.944;11.776;2022-08-06T11:32:49;95425.16;;;25.93;23.58
21826;BME280;11075;47.944;11.776;2022-08-06T11:41:30;95406.84;;;24.75;25.30
21826;BME280;11075;47.944;11.776;2022-08-06T11:44:18;95392.97;;;23.28;25.91
21826;BME280;11075;47.944;11.776;2022-08-06T11:47:13;95415.28;;;24.91;24.72
21826;BME280;11075;47.944;11.776;2022-08-06T11:50:02;95431.22;;;27.07;23.28
21826;BME280;11075;47.944;11.776;2022-08-06T11:52:39;95427.84;;;27.51;22.63
21826;BME280;11075;47.944;11.776;2022-08-06T11:55:15;95404.53;;;25.78;23.61
21826;BME280;11075;47.944;11.776;2022-08-06T12:00:58;95390.34;;;25.29;23.84
21826;BME280;11075;47.944;11.776;2022-08-06T12:03:46;95375.13;;;25.44;25.46
21826;BME280;11075;47.944;11.776;2022-08-06T12:06:24;95398.38;;;26.73;23.43
21826;BME280;11075;47.944;11.776;2022-08-06T12:09:21;95397.19;;;25.91;24.08
21826;BME280;11075;47.944;11.776;2022-08-06T12:14:52;95378.25;;;24.92;24.83
21826;BME280;11075;47.944;11.776;2022-08-06T12:17:25;95416.81;;;27.15;22.84
21826;BME280;11075;47.944;11.776;2022-08-06T12:20:12;95392.84;;;25.93;23.45
21826;BME280;11075;47.944;11.776;2022-08-06T12:23:01;95367.94;;;24.39;25.43
21826;BME280;11075;47.944;11.776;2022-08-06T12:25:30;95410.03;;;26.44;23.03
21826;BME280;11075;47.944;11.776;2022-08-06T12:28:02;95391.56;;;25.98;23.93
21826;BME280;11075;47.944;11.776;2022-08-06T12:30:50;95401.13;;;26.13;23.75
21826;BME280;11075;47.944;11.776;2022-08-06T12:33:20;95385.56;;;25.56;24.41
21826;BME280;11075;47.944;11.776;2022-08-06T12:35:55;95388.16;;;25.67;24.49
21826;BME280;11075;47.944;11.776;2022-08-06T12:38:31;95416.16;;;28.09;22.31
21826;BME280;11075;47.944;11.776;2022-08-06T12:43:38;95397.38;;;28.00;22.24
21826;BME280;11075;47.944;11.776;2022-08-06T12:46:24;95411.66;;;28.85;21.15
21826;BME280;11075;47.944;11.776;2022-08-06T12:48:57;95399.88;;;28.40;21.62
21826;BME280;11075;47.944;11.776;2022-08-06T12:51:27;95388.13;;;28.07;22.48
21826;BME280;11075;47.944;11.776;2022-08-06T12:53:58;95350.19;;;25.51;24.56
21826;BME280;11075;47.944;11.776;2022-08-06T12:56:27;95382.84;;;26.98;23.71
21826;BME280;11075;47.944;11.776;2022-08-06T12:59:01;95384.78;;;27.83;23.19
21826;BME280;11075;47.944;11.776;2022-08-06T13:01:32;95391.63;;;26.93;23.01
21826;BME280;11075;47.944;11.776;2022-08-06T13:04:20;95374.84;;;26.84;23.51
21826;BME280;11075;47.944;11.776;2022-08-06T13:06:59;95367.16;;;27.28;23.19
21826;BME280;11075;47.944;11.776;2022-08-06T13:09:31;95370.78;;;27.74;23.17
21826;BME280;11075;47.944;11.776;2022-08-06T13:12:18;95387.03;;;27.55;23.25
21826;BME280;11075;47.944;11.776;2022-08-06T13:15:14;95383.34;;;28.36;22.27
21826;BME280;11075;47.944;11.776;2022-08-06T13:20:57;95367.66;;;26.31;24.23
21826;BME280;11075;47.944;11.776;2022-08-06T13:23:36;95375.72;;;26.22;24.27
21826;BME280;11075;47.944;11.776;2022-08-06T13:26:19;95363.91;;;25.31;24.85
21826;BME280;11075;47.944;11.776;2022-08-06T13:32:16;95376.25;;;26.92;23.56
21826;BME280;11075;47.944;11.776;2022-08-06T13:35:06;95371.53;;;25.70;23.97
21826;BME280;11075;47.944;11.776;2022-08-06T13:37:48;95384.38;;;26.99;23.28
21826;BME280;11075;47.944;11.776;2022-08-06T13:40:47;95363.78;;;25.38;25.60
21826;BME280;11075;47.944;11.776;2022-08-06T13:43:41;95379.56;;;27.04;23.56
21826;BME280;11075;47.944;11.776;2022-08-06T13:46:25;95394.59;;;28.16;22.20
21826;BME280;11075;47.944;11.776;2022-08-06T13:48:59;95381.84;;;27.74;22.60
21826;BME280;11075;47.944;11.776;2022-08-06T13:51:37;95390.31;;;27.83;22.15
21826;BME280;11075;47.944;11.776;2022-08-06T13:54:15;95370.13;;;27.01;23.48
21826;BME280;11075;47.944;11.776;2022-08-06T13:56:47;95380.34;;;28.31;22.69
21826;BME280;11075;47.944;11.776;2022-08-06T13:59:20;95376.56;;;27.47;23.10
21826;BME280;11075;47.944;11.776;2022-08-06T14:02:08;95358.09;;;26.16;24.43
21826;BME280;11075;47.944;11.776;2022-08-06T14:04:39;95372.25;;;26.57;23.90
21826;BME280;11075;47.944;11.776;2022-08-06T14:07:15;95383.84;;;27.41;23.20
21826;BME280;11075;47.944;11.776;2022-08-06T14:09:42;95382.59;;;26.14;24.21
21826;BME280;11075;47.944;11.776;2022-08-06T14:12:29;95387.44;;;28.73;22.32
21826;BME280;11075;47.944;11.776;2022-08-06T14:14:56;95379.72;;;28.10;22.78
21826;BME280;11075;47.944;11.776;2022-08-06T14:17:24;95373.56;;;26.89;23.49
21826;BME280;11075;47.944;11.776;2022-08-06T14:20:02;95379.75;;;26.77;23.13
21826;BME280;11075;47.944;11.776;2022-08-06T14:22:45;95354.03;;;25.57;24.88
21826;BME280;11075;47.944;11.776;2022-08-06T14:25:15;95369.34;;;26.64;23.50
21826;BME280;11075;47.944;11.776;2022-08-06T14:27:42;95382.94;;;27.11;23.26
21826;BME280;11075;47.944;11.776;2022-08-06T14:30:12;95380.00;;;27.18;23.44
21826;BME280;11075;47.944;11.776;2022-08-06T14:32:57;95389.38;;;28.18;22.71
21826;BME280;11075;47.944;11.776;2022-08-06T14:35:36;95388.88;;;28.65;22.28
21826;BME280;11075;47.944;11.776;2022-08-06T14:38:16;95379.59;;;28.84;22.10
21826;BME280;11075;47.944;11.776;2022-08-06T14:40:42;95370.91;;;28.70;22.58
21826;BME280;11075;47.944;11.776;2022-08-06T14:43:29;95377.63;;;28.85;21.95
21826;BME280;11075;47.944;11.776;2022-08-06T14:46:24;95358.94;;;28.60;22.54
21826;BME280;11075;47.944;11.776;2022-08-06T14:48:53;95373.81;;;28.37;22.21
21826;BME280;11075;47.944;11.776;2022-08-06T14:51:25;95360.03;;;26.94;23.56
21826;BME280;11075;47.944;11.776;2022-08-06T14:54:12;95384.50;;;29.06;21.41